Beaver River, New York
Current Conditions -  °F | °C
As of 6:58 PM on Sunday 23 Nov 2014 (Local Time) from KGTB Reporting Station
Broken Clouds Broken Clouds  
Wind Chill: 36°   Ceiling: 5000
Heat Index: 43°   Visibility: 10mi
Dew Point: 37°   Wind: 15mph
Humidity: 80%   Direction: 150°SSE
Pressure: 29.92"   Gusts: NA
Location:  43.7565°N, 75.5938°W
Report Text: KGTB 232358Z AUTO 15013KT 10SM BKN050 06/03 A2992 RMK AO2 SLP137 T00620030 10086 20059 57018
Loading
Personal Weather Stations






























Interactive Weather Map New forecast layout! Learn more

10-Day Weather Forecast

Advertisements
Track Severe Weather on mobile